KUG358 OKKK-OBBI
Flight info
| Callsign | KUG358 |
|---|---|
| Flight time | 0h 40m |
| Altitude | 27000 |
| Route | BOXIK B416 IMDOX P975 LONOS L703 KOBOK |
| Aircraft | A346/H-SDE2E3FGHIJ3J4J5M1RWXY/LB1D1 |
Departure
| Time | 2026-04-28 13:32 |
|---|---|
| Airport | Kuwait International Airport (OKKK) |
Arrival
| Time | 2026-04-28 14:12 |
|---|---|
| Airport | Bahrain International Airport (OBBI) |
| Time | Latitude | Longitude | Altitude | Speed | Heading |
|---|---|---|---|---|---|
| 2026-04-28 13:04 | 29.24609 | 47.97656 | 172 ft | 0 kts | 270° |
| 2026-04-28 13:17 | 29.24607 | 47.97671 | 172 ft | 2 kts | 302° |
| 2026-04-28 13:17 | 29.24598 | 47.97684 | 172 ft | 2 kts | 310° |
| 2026-04-28 13:18 | 29.24589 | 47.97697 | 172 ft | 2 kts | 306° |
| 2026-04-28 13:18 | 29.24580 | 47.97712 | 172 ft | 2 kts | 304° |
| 2026-04-28 13:18 | 29.24572 | 47.97726 | 173 ft | 2 kts | 304° |
| 2026-04-28 13:18 | 29.24563 | 47.97740 | 173 ft | 2 kts | 305° |
| 2026-04-28 13:19 | 29.24555 | 47.97754 | 174 ft | 2 kts | 305° |
| 2026-04-28 13:19 | 29.24546 | 47.97768 | 174 ft | 2 kts | 305° |
| 2026-04-28 13:19 | 29.24541 | 47.97777 | 174 ft | 2 kts | 304° |
| 2026-04-28 13:19 | 29.24536 | 47.97792 | 174 ft | 2 kts | 264° |
| 2026-04-28 13:20 | 29.24541 | 47.97807 | 175 ft | 2 kts | 230° |
| 2026-04-28 13:20 | 29.24552 | 47.97816 | 175 ft | 2 kts | 197° |
| 2026-04-28 13:20 | 29.24566 | 47.97817 | 175 ft | 2 kts | 163° |
| 2026-04-28 13:20 | 29.24572 | 47.97815 | 175 ft | 1 kts | 154° |
| 2026-04-28 13:21 | 29.24573 | 47.97814 | 175 ft | 0 kts | 154° |
| 2026-04-28 13:23 | 29.24565 | 47.97818 | 175 ft | 2 kts | 154° |
| 2026-04-28 13:23 | 29.24537 | 47.97833 | 175 ft | 6 kts | 156° |
| 2026-04-28 13:24 | 29.24488 | 47.97857 | 176 ft | 9 kts | 157° |
| 2026-04-28 13:24 | 29.24419 | 47.97891 | 176 ft | 11 kts | 157° |
| 2026-04-28 13:24 | 29.24336 | 47.97931 | 177 ft | 13 kts | 157° |
| 2026-04-28 13:24 | 29.24253 | 47.97974 | 176 ft | 9 kts | 154° |
| 2026-04-28 13:25 | 29.24187 | 47.98011 | 176 ft | 9 kts | 154° |
| 2026-04-28 13:25 | 29.24138 | 47.98038 | 175 ft | 7 kts | 155° |
| 2026-04-28 13:25 | 29.24086 | 47.98081 | 175 ft | 11 kts | 134° |
| 2026-04-28 13:25 | 29.24016 | 47.98139 | 175 ft | 13 kts | 153° |
| 2026-04-28 13:26 | 29.23941 | 47.98159 | 175 ft | 9 kts | 202° |
| 2026-04-28 13:26 | 29.23899 | 47.98086 | 175 ft | 12 kts | 244° |
| 2026-04-28 13:26 | 29.23858 | 47.97985 | 175 ft | 15 kts | 246° |
| 2026-04-28 13:26 | 29.23809 | 47.97857 | 173 ft | 19 kts | 246° |
| 2026-04-28 13:27 | 29.23753 | 47.97709 | 172 ft | 21 kts | 247° |
| 2026-04-28 13:27 | 29.23693 | 47.97546 | 168 ft | 16 kts | 248° |
| 2026-04-28 13:27 | 29.23658 | 47.97450 | 165 ft | 14 kts | 247° |
| 2026-04-28 13:27 | 29.23614 | 47.97332 | 163 ft | 17 kts | 246° |
| 2026-04-28 13:28 | 29.23560 | 47.97195 | 162 ft | 20 kts | 245° |
| 2026-04-28 13:28 | 29.23494 | 47.97036 | 158 ft | 19 kts | 244° |
| 2026-04-28 13:28 | 29.23454 | 47.96938 | 158 ft | 11 kts | 245° |
| 2026-04-28 13:28 | 29.23416 | 47.96847 | 157 ft | 14 kts | 244° |
| 2026-04-28 13:29 | 29.23402 | 47.96768 | 156 ft | 10 kts | 298° |
| 2026-04-28 13:29 | 29.23472 | 47.96708 | 155 ft | 14 kts | 333° |
| 2026-04-28 13:29 | 29.23573 | 47.96654 | 154 ft | 17 kts | 335° |
| 2026-04-28 13:29 | 29.23688 | 47.96593 | 154 ft | 19 kts | 335° |
| 2026-04-28 13:30 | 29.23814 | 47.96525 | 154 ft | 20 kts | 334° |
| 2026-04-28 13:30 | 29.23950 | 47.96452 | 153 ft | 20 kts | 335° |
| 2026-04-28 13:30 | 29.24064 | 47.96392 | 152 ft | 12 kts | 335° |
| 2026-04-28 13:30 | 29.24085 | 47.96316 | 150 ft | 13 kts | 253° |
| 2026-04-28 13:31 | 29.23976 | 47.96196 | 151 ft | 12 kts | 163° |
| 2026-04-28 13:31 | 29.23763 | 47.96304 | 152 ft | 68 kts | 155° |
| 2026-04-28 13:31 | 29.23120 | 47.96645 | 157 ft | 132 kts | 155° |
| 2026-04-28 13:32 | 29.22135 | 47.97171 | 272 ft | 172 kts | 156° |
| 2026-04-28 13:32 | 29.21052 | 47.97746 | 852 ft | 173 kts | 156° |
| 2026-04-28 13:32 | 29.20010 | 47.98411 | 1412 ft | 179 kts | 139° |
| 2026-04-28 13:32 | 29.19295 | 47.99611 | 1996 ft | 187 kts | 123° |
| 2026-04-28 13:33 | 29.18648 | 48.00939 | 2310 ft | 199 kts | 122° |
| 2026-04-28 13:33 | 29.17945 | 48.02390 | 2588 ft | 215 kts | 122° |
| 2026-04-28 13:33 | 29.17195 | 48.03943 | 2874 ft | 231 kts | 122° |
| 2026-04-28 13:33 | 29.16380 | 48.05619 | 3144 ft | 252 kts | 122° |
| 2026-04-28 13:34 | 29.15503 | 48.07423 | 3514 ft | 271 kts | 121° |
| 2026-04-28 13:34 | 29.14566 | 48.09359 | 4067 ft | 281 kts | 121° |
| 2026-04-28 13:34 | 29.13625 | 48.11307 | 4805 ft | 285 kts | 121° |
| 2026-04-28 13:34 | 29.12667 | 48.13287 | 5600 ft | 287 kts | 121° |
| 2026-04-28 13:35 | 29.11697 | 48.15287 | 6414 ft | 290 kts | 122° |
| 2026-04-28 13:35 | 29.10723 | 48.17300 | 7246 ft | 293 kts | 122° |
| 2026-04-28 13:35 | 29.09737 | 48.19332 | 8115 ft | 295 kts | 122° |
| 2026-04-28 13:35 | 29.08741 | 48.21385 | 8993 ft | 298 kts | 123° |
| 2026-04-28 13:36 | 29.07730 | 48.23463 | 9860 ft | 301 kts | 123° |
| 2026-04-28 13:36 | 29.06712 | 48.25549 | 10603 ft | 309 kts | 123° |
| 2026-04-28 13:36 | 29.05630 | 48.27756 | 11099 ft | 326 kts | 123° |
| 2026-04-28 13:36 | 29.04497 | 48.30069 | 11553 ft | 345 kts | 123° |
| 2026-04-28 13:37 | 29.03298 | 48.32521 | 11990 ft | 364 kts | 123° |
| 2026-04-28 13:37 | 29.02023 | 48.35126 | 12402 ft | 383 kts | 122° |
| 2026-04-28 13:37 | 29.00697 | 48.37838 | 12869 ft | 399 kts | 122° |
| 2026-04-28 13:37 | 28.99336 | 48.40621 | 13571 ft | 406 kts | 122° |
| 2026-04-28 13:38 | 28.97964 | 48.43428 | 14276 ft | 410 kts | 122° |
| 2026-04-28 13:38 | 28.96575 | 48.46273 | 14909 ft | 414 kts | 122° |
| 2026-04-28 13:38 | 28.95152 | 48.49186 | 15521 ft | 420 kts | 122° |
| 2026-04-28 13:38 | 28.93720 | 48.52112 | 16129 ft | 426 kts | 122° |
| 2026-04-28 13:39 | 28.92285 | 48.55043 | 16731 ft | 431 kts | 122° |
| 2026-04-28 13:39 | 28.90812 | 48.58045 | 17332 ft | 436 kts | 122° |
| 2026-04-28 13:39 | 28.89317 | 48.61092 | 17905 ft | 441 kts | 122° |
| 2026-04-28 13:39 | 28.87829 | 48.64125 | 18478 ft | 447 kts | 122° |
| 2026-04-28 13:40 | 28.86284 | 48.67271 | 19055 ft | 452 kts | 123° |
| 2026-04-28 13:40 | 28.84748 | 48.70397 | 19632 ft | 457 kts | 123° |
| 2026-04-28 13:40 | 28.83196 | 48.73554 | 20218 ft | 462 kts | 123° |
| 2026-04-28 13:40 | 28.81610 | 48.76774 | 20821 ft | 466 kts | 123° |
| 2026-04-28 13:41 | 28.80024 | 48.79993 | 21412 ft | 470 kts | 123° |
| 2026-04-28 13:41 | 28.78423 | 48.83254 | 21986 ft | 473 kts | 123° |
| 2026-04-28 13:41 | 28.76831 | 48.86501 | 22545 ft | 477 kts | 123° |
| 2026-04-28 13:41 | 28.75211 | 48.89808 | 23094 ft | 481 kts | 124° |
| 2026-04-28 13:42 | 28.73570 | 48.93153 | 23629 ft | 484 kts | 124° |
| 2026-04-28 13:42 | 28.71917 | 48.96519 | 24148 ft | 488 kts | 124° |
| 2026-04-28 13:42 | 28.70271 | 48.99870 | 24653 ft | 491 kts | 124° |
| 2026-04-28 13:42 | 28.68607 | 49.03254 | 25238 ft | 492 kts | 124° |
| 2026-04-28 13:43 | 28.66937 | 49.06648 | 25850 ft | 492 kts | 124° |
| 2026-04-28 13:43 | 28.65246 | 49.10081 | 26386 ft | 494 kts | 125° |
| 2026-04-28 13:43 | 28.63568 | 49.13483 | 26735 ft | 497 kts | 125° |
| 2026-04-28 13:43 | 28.61886 | 49.16894 | 26840 ft | 498 kts | 125° |
| 2026-04-28 13:44 | 28.60161 | 49.20325 | 26887 ft | 494 kts | 129° |
| 2026-04-28 13:44 | 28.58069 | 49.23348 | 26884 ft | 483 kts | 141° |
| 2026-04-28 13:44 | 28.55577 | 49.25769 | 26822 ft | 471 kts | 152° |
| 2026-04-28 13:44 | 28.52797 | 49.27769 | 26797 ft | 467 kts | 156° |
| 2026-04-28 13:45 | 28.50085 | 49.29756 | 26779 ft | 471 kts | 152° |
| 2026-04-28 13:45 | 28.47462 | 49.32015 | 26765 ft | 476 kts | 148° |
| 2026-04-28 13:45 | 28.44924 | 49.34469 | 26743 ft | 477 kts | 146° |
| 2026-04-28 13:45 | 28.42435 | 49.36927 | 26732 ft | 477 kts | 146° |
| 2026-04-28 13:46 | 28.39908 | 49.39439 | 26726 ft | 478 kts | 146° |
| 2026-04-28 13:46 | 28.37409 | 49.41925 | 26726 ft | 478 kts | 146° |
| 2026-04-28 13:46 | 28.34927 | 49.44388 | 26735 ft | 478 kts | 146° |
| 2026-04-28 13:46 | 28.32428 | 49.46863 | 26741 ft | 478 kts | 146° |
| 2026-04-28 13:47 | 28.29904 | 49.49358 | 26744 ft | 478 kts | 146° |
| 2026-04-28 13:47 | 28.27401 | 49.51828 | 26747 ft | 478 kts | 146° |
| 2026-04-28 13:47 | 28.24905 | 49.54287 | 26753 ft | 478 kts | 146° |
| 2026-04-28 13:47 | 28.22390 | 49.56744 | 26759 ft | 476 kts | 147° |
| 2026-04-28 13:48 | 28.19784 | 49.59077 | 26766 ft | 473 kts | 150° |
| 2026-04-28 13:48 | 28.17170 | 49.61330 | 26774 ft | 473 kts | 150° |
| 2026-04-28 13:48 | 28.14551 | 49.63582 | 26779 ft | 472 kts | 150° |
| 2026-04-28 13:48 | 28.11944 | 49.65823 | 26780 ft | 472 kts | 150° |
| 2026-04-28 13:49 | 28.09314 | 49.68082 | 26781 ft | 471 kts | 150° |
| 2026-04-28 13:49 | 28.06704 | 49.70324 | 26783 ft | 471 kts | 150° |
| 2026-04-28 13:49 | 28.04096 | 49.72495 | 26783 ft | 468 kts | 153° |
| 2026-04-28 13:49 | 28.01418 | 49.74583 | 26785 ft | 468 kts | 153° |
| 2026-04-28 13:50 | 27.98737 | 49.76669 | 26785 ft | 468 kts | 153° |
| 2026-04-28 13:50 | 27.96042 | 49.78764 | 26784 ft | 469 kts | 153° |
| 2026-04-28 13:50 | 27.93340 | 49.80863 | 26783 ft | 469 kts | 153° |
| 2026-04-28 13:50 | 27.90677 | 49.82932 | 26782 ft | 469 kts | 153° |
| 2026-04-28 13:51 | 27.87957 | 49.85046 | 26783 ft | 468 kts | 153° |
| 2026-04-28 13:51 | 27.85272 | 49.87129 | 26783 ft | 468 kts | 153° |
| 2026-04-28 13:51 | 27.82592 | 49.89207 | 26784 ft | 468 kts | 153° |
| 2026-04-28 13:51 | 27.79898 | 49.91292 | 26784 ft | 468 kts | 153° |
| 2026-04-28 13:52 | 27.77215 | 49.93365 | 26782 ft | 468 kts | 153° |
| 2026-04-28 13:52 | 27.74528 | 49.95441 | 26779 ft | 468 kts | 153° |
| 2026-04-28 13:52 | 27.71853 | 49.97508 | 26775 ft | 468 kts | 153° |
| 2026-04-28 13:52 | 27.69159 | 49.99589 | 26773 ft | 468 kts | 153° |
| 2026-04-28 13:53 | 27.66559 | 50.01597 | 26646 ft | 469 kts | 153° |
| 2026-04-28 13:53 | 27.63881 | 50.03664 | 26386 ft | 469 kts | 153° |
| 2026-04-28 13:53 | 27.61185 | 50.05744 | 25959 ft | 469 kts | 153° |
| 2026-04-28 13:53 | 27.58495 | 50.07820 | 25392 ft | 467 kts | 153° |
| 2026-04-28 13:54 | 27.55833 | 50.09871 | 24753 ft | 467 kts | 153° |
| 2026-04-28 13:54 | 27.53139 | 50.11948 | 24215 ft | 462 kts | 153° |
| 2026-04-28 13:54 | 27.50509 | 50.13975 | 23678 ft | 456 kts | 153° |
| 2026-04-28 13:54 | 27.47905 | 50.15979 | 23188 ft | 449 kts | 153° |
| 2026-04-28 13:55 | 27.45334 | 50.17952 | 22783 ft | 448 kts | 152° |
| 2026-04-28 13:55 | 27.42761 | 50.19967 | 22694 ft | 452 kts | 151° |
| 2026-04-28 13:55 | 27.40215 | 50.22029 | 22650 ft | 451 kts | 150° |
| 2026-04-28 13:55 | 27.37698 | 50.24089 | 22234 ft | 446 kts | 150° |
| 2026-04-28 13:56 | 27.35189 | 50.26140 | 21434 ft | 445 kts | 150° |
| 2026-04-28 13:56 | 27.32694 | 50.28170 | 20702 ft | 441 kts | 150° |
| 2026-04-28 13:56 | 27.30243 | 50.30160 | 19856 ft | 436 kts | 150° |
| 2026-04-28 13:56 | 27.27796 | 50.32142 | 18883 ft | 429 kts | 150° |
| 2026-04-28 13:57 | 27.25396 | 50.34082 | 17938 ft | 422 kts | 150° |
| 2026-04-28 13:57 | 27.23055 | 50.35972 | 16992 ft | 415 kts | 149° |
| 2026-04-28 13:57 | 27.20734 | 50.37841 | 16152 ft | 410 kts | 149° |
| 2026-04-28 13:57 | 27.18409 | 50.39712 | 15615 ft | 407 kts | 149° |
| 2026-04-28 13:58 | 27.16128 | 50.41550 | 15036 ft | 405 kts | 148° |
| 2026-04-28 13:58 | 27.13852 | 50.43384 | 14469 ft | 402 kts | 148° |
| 2026-04-28 13:58 | 27.11563 | 50.45230 | 13923 ft | 399 kts | 148° |
| 2026-04-28 13:58 | 27.09324 | 50.47033 | 13395 ft | 396 kts | 148° |
| 2026-04-28 13:59 | 27.07071 | 50.48846 | 12865 ft | 392 kts | 147° |
| 2026-04-28 13:59 | 27.04855 | 50.50639 | 12329 ft | 388 kts | 147° |
| 2026-04-28 13:59 | 27.02680 | 50.52390 | 12028 ft | 386 kts | 147° |
| 2026-04-28 13:59 | 27.00468 | 50.54165 | 11985 ft | 387 kts | 148° |
| 2026-04-28 14:00 | 26.98133 | 50.55607 | 11971 ft | 383 kts | 161° |
| 2026-04-28 14:00 | 26.95566 | 50.56414 | 11976 ft | 378 kts | 173° |
| 2026-04-28 14:00 | 26.92965 | 50.56658 | 11773 ft | 368 kts | 180° |
| 2026-04-28 14:00 | 26.90410 | 50.56762 | 11130 ft | 369 kts | 180° |
| 2026-04-28 14:01 | 26.87850 | 50.56852 | 10548 ft | 368 kts | 180° |
| 2026-04-28 14:01 | 26.85290 | 50.56949 | 10079 ft | 354 kts | 182° |
| 2026-04-28 14:01 | 26.82878 | 50.56827 | 9604 ft | 335 kts | 187° |
| 2026-04-28 14:01 | 26.80614 | 50.56517 | 9244 ft | 316 kts | 191° |
| 2026-04-28 14:02 | 26.78516 | 50.56109 | 8885 ft | 298 kts | 192° |
| 2026-04-28 14:02 | 26.76524 | 50.55701 | 8581 ft | 281 kts | 193° |
| 2026-04-28 14:02 | 26.74648 | 50.55315 | 8306 ft | 266 kts | 193° |
| 2026-04-28 14:02 | 26.72873 | 50.54950 | 8048 ft | 251 kts | 193° |
| 2026-04-28 14:03 | 26.71191 | 50.54608 | 7794 ft | 239 kts | 193° |
| 2026-04-28 14:03 | 26.69552 | 50.54276 | 7397 ft | 235 kts | 193° |
| 2026-04-28 14:03 | 26.67958 | 50.53952 | 6944 ft | 235 kts | 193° |
| 2026-04-28 14:03 | 26.66342 | 50.53621 | 6494 ft | 234 kts | 193° |
| 2026-04-28 14:04 | 26.64739 | 50.53292 | 6055 ft | 232 kts | 193° |
| 2026-04-28 14:04 | 26.63152 | 50.52965 | 5621 ft | 231 kts | 193° |
| 2026-04-28 14:04 | 26.61593 | 50.52643 | 5192 ft | 229 kts | 192° |
| 2026-04-28 14:04 | 26.60014 | 50.52312 | 4761 ft | 228 kts | 192° |
| 2026-04-28 14:05 | 26.58469 | 50.51984 | 4341 ft | 227 kts | 192° |
| 2026-04-28 14:05 | 26.56922 | 50.51649 | 3920 ft | 225 kts | 192° |
| 2026-04-28 14:05 | 26.55381 | 50.51310 | 3533 ft | 224 kts | 192° |
| 2026-04-28 14:05 | 26.53847 | 50.50967 | 3280 ft | 224 kts | 192° |
| 2026-04-28 14:06 | 26.52315 | 50.50618 | 3018 ft | 223 kts | 192° |
| 2026-04-28 14:06 | 26.50803 | 50.50263 | 2755 ft | 223 kts | 192° |
| 2026-04-28 14:06 | 26.49287 | 50.49888 | 2567 ft | 220 kts | 192° |
| 2026-04-28 14:06 | 26.47809 | 50.49510 | 2336 ft | 218 kts | 192° |
| 2026-04-28 14:07 | 26.46327 | 50.49127 | 2091 ft | 218 kts | 193° |
| 2026-04-28 14:07 | 26.44849 | 50.48746 | 1859 ft | 217 kts | 193° |
| 2026-04-28 14:07 | 26.43372 | 50.48369 | 1634 ft | 215 kts | 192° |
| 2026-04-28 14:07 | 26.41915 | 50.47994 | 1507 ft | 213 kts | 192° |
| 2026-04-28 14:08 | 26.40501 | 50.47628 | 1519 ft | 202 kts | 192° |
| 2026-04-28 14:08 | 26.39155 | 50.47608 | 1484 ft | 188 kts | 163° |
| 2026-04-28 14:08 | 26.37948 | 50.48154 | 1500 ft | 187 kts | 154° |
| 2026-04-28 14:08 | 26.37165 | 50.48573 | 1499 ft | 187 kts | 153° |
| 2026-04-28 14:09 | 26.35600 | 50.49451 | 1494 ft | 187 kts | 144° |
| 2026-04-28 14:09 | 26.34638 | 50.50428 | 1499 ft | 187 kts | 129° |
| 2026-04-28 14:09 | 26.33859 | 50.51592 | 1500 ft | 186 kts | 122° |
| 2026-04-28 14:09 | 26.33169 | 50.52795 | 1499 ft | 186 kts | 120° |
| 2026-04-28 14:10 | 26.32473 | 50.54033 | 1498 ft | 186 kts | 120° |
| 2026-04-28 14:10 | 26.31776 | 50.55251 | 1344 ft | 182 kts | 121° |
| 2026-04-28 14:10 | 26.31131 | 50.56362 | 1122 ft | 170 kts | 121° |
| 2026-04-28 14:10 | 26.30512 | 50.57429 | 916 ft | 156 kts | 121° |
| 2026-04-28 14:11 | 26.29933 | 50.58427 | 740 ft | 155 kts | 121° |
| 2026-04-28 14:11 | 26.29349 | 50.59446 | 561 ft | 156 kts | 121° |
| 2026-04-28 14:11 | 26.28756 | 50.60463 | 341 ft | 154 kts | 122° |
| 2026-04-28 14:11 | 26.28184 | 50.61463 | 152 ft | 153 kts | 120° |
| 2026-04-28 14:12 | 26.27610 | 50.62447 | 26 ft | 144 kts | 118° |
| 2026-04-28 14:12 | 26.27144 | 50.63264 | 21 ft | 100 kts | 121° |
| 2026-04-28 14:12 | 26.26862 | 50.63759 | 21 ft | 55 kts | 122° |
| 2026-04-28 14:12 | 26.26671 | 50.64087 | 21 ft | 44 kts | 122° |
| 2026-04-28 14:13 | 26.26548 | 50.64301 | 21 ft | 17 kts | 130° |
| 2026-04-28 14:13 | 26.26471 | 50.64317 | 21 ft | 12 kts | 203° |
| 2026-04-28 14:13 | 26.26400 | 50.64274 | 21 ft | 5 kts | 221° |
| 2026-04-28 14:13 | 26.26392 | 50.64215 | 21 ft | 10 kts | 289° |
| 2026-04-28 14:14 | 26.26431 | 50.64133 | 21 ft | 13 kts | 300° |
| 2026-04-28 14:14 | 26.26484 | 50.64033 | 21 ft | 16 kts | 301° |
| 2026-04-28 14:14 | 26.26549 | 50.63922 | 21 ft | 18 kts | 303° |
| 2026-04-28 14:14 | 26.26603 | 50.63833 | 21 ft | 6 kts | 298° |
| 2026-04-28 14:15 | 26.26603 | 50.63779 | 21 ft | 9 kts | 242° |
| 2026-04-28 14:15 | 26.26558 | 50.63749 | 21 ft | 7 kts | 186° |
| 2026-04-28 14:15 | 26.26502 | 50.63726 | 21 ft | 9 kts | 211° |
| 2026-04-28 14:15 | 26.26462 | 50.63697 | 21 ft | 3 kts | 212° |
| 2026-04-28 14:16 | 26.26459 | 50.63695 | 21 ft | 0 kts | 212° |